sensor_id;sensor_type;location;lat;lon;timestamp;P1;durP1;ratioP1;P2;durP2;ratioP2
49758;SDS011;35654;46.080;11.118;2023-02-08T00:01:22;42.40;;;17.42;;
49758;SDS011;35654;46.080;11.118;2023-02-08T00:03:49;40.58;;;18.58;;
49758;SDS011;35654;46.080;11.118;2023-02-08T00:06:16;44.90;;;19.20;;
49758;SDS011;35654;46.080;11.118;2023-02-08T00:08:43;43.13;;;18.83;;
49758;SDS011;35654;46.080;11.118;2023-02-08T00:11:10;39.67;;;18.88;;
49758;SDS011;35654;46.080;11.118;2023-02-08T00:13:38;42.70;;;18.27;;
49758;SDS011;35654;46.080;11.118;2023-02-08T00:16:05;39.15;;;17.77;;
49758;SDS011;35654;46.080;11.118;2023-02-08T00:18:33;34.33;;;16.42;;
49758;SDS011;35654;46.080;11.118;2023-02-08T00:21:00;39.33;;;17.15;;
49758;SDS011;35654;46.080;11.118;2023-02-08T00:23:26;43.28;;;17.73;;
49758;SDS011;35654;46.080;11.118;2023-02-08T00:25:53;40.63;;;18.45;;
49758;SDS011;35654;46.080;11.118;2023-02-08T00:28:19;38.45;;;17.65;;
49758;SDS011;35654;46.080;11.118;2023-02-08T00:30:46;37.80;;;17.42;;
49758;SDS011;35654;46.080;11.118;2023-02-08T00:33:14;37.80;;;16.92;;
49758;SDS011;35654;46.080;11.118;2023-02-08T00:38:07;40.00;;;17.92;;
49758;SDS011;35654;46.080;11.118;2023-02-08T00:40:34;39.72;;;18.10;;
49758;SDS011;35654;46.080;11.118;2023-02-08T00:43:00;37.20;;;16.83;;
49758;SDS011;35654;46.080;11.118;2023-02-08T00:45:28;37.67;;;17.50;;
49758;SDS011;35654;46.080;11.118;2023-02-08T00:50:21;39.85;;;17.13;;
49758;SDS011;35654;46.080;11.118;2023-02-08T00:52:47;38.97;;;16.83;;
49758;SDS011;35654;46.080;11.118;2023-02-08T00:55:14;34.38;;;15.93;;
49758;SDS011;35654;46.080;11.118;2023-02-08T00:57:41;37.03;;;16.92;;
49758;SDS011;35654;46.080;11.118;2023-02-08T01:02:36;39.78;;;16.48;;
49758;SDS011;35654;46.080;11.118;2023-02-08T01:05:03;42.10;;;18.90;;
49758;SDS011;35654;46.080;11.118;2023-02-08T01:07:30;66.28;;;29.17;;
49758;SDS011;35654;46.080;11.118;2023-02-08T01:09:57;44.03;;;19.33;;
49758;SDS011;35654;46.080;11.118;2023-02-08T01:12:26;44.42;;;18.85;;
49758;SDS011;35654;46.080;11.118;2023-02-08T01:14:53;41.75;;;18.05;;
49758;SDS011;35654;46.080;11.118;2023-02-08T01:17:20;37.55;;;17.38;;
49758;SDS011;35654;46.080;11.118;2023-02-08T01:19:46;37.75;;;18.10;;
49758;SDS011;35654;46.080;11.118;2023-02-08T01:22:13;43.95;;;18.30;;
49758;SDS011;35654;46.080;11.118;2023-02-08T01:24:39;41.08;;;17.98;;
49758;SDS011;35654;46.080;11.118;2023-02-08T01:27:06;39.58;;;17.80;;
49758;SDS011;35654;46.080;11.118;2023-02-08T01:29:33;54.05;;;18.65;;
49758;SDS011;35654;46.080;11.118;2023-02-08T01:32:00;39.08;;;18.42;;
49758;SDS011;35654;46.080;11.118;2023-02-08T01:36:53;44.33;;;18.05;;
49758;SDS011;35654;46.080;11.118;2023-02-08T01:41:45;41.20;;;17.88;;
49758;SDS011;35654;46.080;11.118;2023-02-08T01:46:44;43.42;;;18.90;;
49758;SDS011;35654;46.080;11.118;2023-02-08T01:49:21;43.13;;;18.30;;
49758;SDS011;35654;46.080;11.118;2023-02-08T01:52:30;45.78;;;19.85;;
49758;SDS011;35654;46.080;11.118;2023-02-08T01:54:56;41.50;;;18.30;;
49758;SDS011;35654;46.080;11.118;2023-02-08T01:57:39;40.38;;;19.35;;
49758;SDS011;35654;46.080;11.118;2023-02-08T02:00:11;41.00;;;18.50;;
49758;SDS011;35654;46.080;11.118;2023-02-08T02:02:50;38.40;;;17.95;;
49758;SDS011;35654;46.080;11.118;2023-02-08T02:05:22;40.28;;;18.42;;
49758;SDS011;35654;46.080;11.118;2023-02-08T02:07:53;50.15;;;18.50;;
49758;SDS011;35654;46.080;11.118;2023-02-08T02:10:30;42.53;;;18.50;;
49758;SDS011;35654;46.080;11.118;2023-02-08T02:13:01;41.22;;;17.58;;
49758;SDS011;35654;46.080;11.118;2023-02-08T02:15:31;39.40;;;18.13;;
49758;SDS011;35654;46.080;11.118;2023-02-08T02:17:59;40.05;;;18.02;;
49758;SDS011;35654;46.080;11.118;2023-02-08T02:29:43;44.30;;;18.03;;
49758;SDS011;35654;46.080;11.118;2023-02-08T02:37:47;41.25;;;16.30;;
49758;SDS011;35654;46.080;11.118;2023-02-08T02:40:27;41.88;;;17.10;;
49758;SDS011;35654;46.080;11.118;2023-02-08T02:54:50;37.05;;;16.83;;
49758;SDS011;35654;46.080;11.118;2023-02-08T02:57:26;37.47;;;16.88;;
49758;SDS011;35654;46.080;11.118;2023-02-08T02:59:57;38.55;;;17.55;;
49758;SDS011;35654;46.080;11.118;2023-02-08T03:02:25;41.78;;;16.95;;
49758;SDS011;35654;46.080;11.118;2023-02-08T03:04:54;37.78;;;17.23;;
49758;SDS011;35654;46.080;11.118;2023-02-08T03:24:08;39.92;;;16.70;;
49758;SDS011;35654;46.080;11.118;2023-02-08T03:26:57;36.75;;;16.60;;
49758;SDS011;35654;46.080;11.118;2023-02-08T03:32:12;37.55;;;16.70;;
49758;SDS011;35654;46.080;11.118;2023-02-08T03:34:56;36.83;;;15.98;;
49758;SDS011;35654;46.080;11.118;2023-02-08T03:37:40;36.78;;;16.50;;
49758;SDS011;35654;46.080;11.118;2023-02-08T03:40:24;33.90;;;15.95;;
49758;SDS011;35654;46.080;11.118;2023-02-08T03:42:57;37.67;;;16.52;;
49758;SDS011;35654;46.080;11.118;2023-02-08T03:45:31;33.40;;;16.10;;
49758;SDS011;35654;46.080;11.118;2023-02-08T03:48:02;33.10;;;16.10;;
49758;SDS011;35654;46.080;11.118;2023-02-08T03:50:32;38.50;;;16.85;;
49758;SDS011;35654;46.080;11.118;2023-02-08T03:53:02;37.35;;;17.00;;
49758;SDS011;35654;46.080;11.118;2023-02-08T03:55:30;45.03;;;17.02;;
49758;SDS011;35654;46.080;11.118;2023-02-08T03:58:17;38.05;;;16.35;;
49758;SDS011;35654;46.080;11.118;2023-02-08T04:01:00;35.38;;;15.65;;
49758;SDS011;35654;46.080;11.118;2023-02-08T04:03:31;37.30;;;15.63;;
49758;SDS011;35654;46.080;11.118;2023-02-08T04:06:00;38.13;;;16.63;;
49758;SDS011;35654;46.080;11.118;2023-02-08T04:10:53;40.13;;;15.60;;
49758;SDS011;35654;46.080;11.118;2023-02-08T04:13:20;40.30;;;16.90;;
49758;SDS011;35654;46.080;11.118;2023-02-08T04:15:47;41.38;;;16.70;;
49758;SDS011;35654;46.080;11.118;2023-02-08T04:18:13;36.40;;;15.77;;
49758;SDS011;35654;46.080;11.118;2023-02-08T04:20:40;33.45;;;14.63;;
49758;SDS011;35654;46.080;11.118;2023-02-08T04:23:07;37.13;;;15.63;;
49758;SDS011;35654;46.080;11.118;2023-02-08T04:25:33;35.78;;;16.10;;
49758;SDS011;35654;46.080;11.118;2023-02-08T04:28:00;37.20;;;15.68;;
49758;SDS011;35654;46.080;11.118;2023-02-08T04:30:26;33.00;;;15.50;;
49758;SDS011;35654;46.080;11.118;2023-02-08T04:35:20;33.40;;;14.35;;
49758;SDS011;35654;46.080;11.118;2023-02-08T04:37:46;32.95;;;14.90;;
49758;SDS011;35654;46.080;11.118;2023-02-08T04:40:13;31.73;;;15.25;;
49758;SDS011;35654;46.080;11.118;2023-02-08T04:42:39;36.78;;;14.38;;
49758;SDS011;35654;46.080;11.118;2023-02-08T04:45:06;39.97;;;16.70;;
49758;SDS011;35654;46.080;11.118;2023-02-08T04:47:33;39.15;;;16.80;;
49758;SDS011;35654;46.080;11.118;2023-02-08T04:49:59;35.10;;;15.30;;
49758;SDS011;35654;46.080;11.118;2023-02-08T04:52:24;35.77;;;15.37;;
49758;SDS011;35654;46.080;11.118;2023-02-08T04:54:49;31.93;;;14.70;;
49758;SDS011;35654;46.080;11.118;2023-02-08T04:57:15;33.43;;;14.03;;
49758;SDS011;35654;46.080;11.118;2023-02-08T04:59:40;31.93;;;14.63;;
49758;SDS011;35654;46.080;11.118;2023-02-08T05:02:06;36.73;;;14.60;;
49758;SDS011;35654;46.080;11.118;2023-02-08T05:04:32;30.57;;;13.83;;
49758;SDS011;35654;46.080;11.118;2023-02-08T05:06:57;40.03;;;15.80;;
49758;SDS011;35654;46.080;11.118;2023-02-08T05:09:23;35.73;;;14.50;;
49758;SDS011;35654;46.080;11.118;2023-02-08T05:11:48;39.80;;;14.60;;
49758;SDS011;35654;46.080;11.118;2023-02-08T05:14:14;34.70;;;14.57;;
49758;SDS011;35654;46.080;11.118;2023-02-08T05:16:39;31.63;;;14.73;;
49758;SDS011;35654;46.080;11.118;2023-02-08T05:19:05;34.73;;;14.80;;
49758;SDS011;35654;46.080;11.118;2023-02-08T05:21:30;39.80;;;15.60;;
49758;SDS011;35654;46.080;11.118;2023-02-08T05:23:55;32.37;;;14.43;;
49758;SDS011;35654;46.080;11.118;2023-02-08T05:26:21;33.47;;;15.00;;
49758;SDS011;35654;46.080;11.118;2023-02-08T05:28:46;33.30;;;15.13;;
49758;SDS011;35654;46.080;11.118;2023-02-08T05:31:13;39.53;;;15.80;;
49758;SDS011;35654;46.080;11.118;2023-02-08T05:33:41;36.75;;;14.52;;
49758;SDS011;35654;46.080;11.118;2023-02-08T05:36:07;32.17;;;15.17;;
49758;SDS011;35654;46.080;11.118;2023-02-08T05:38:33;32.80;;;14.37;;
49758;SDS011;35654;46.080;11.118;2023-02-08T05:40:58;36.10;;;15.20;;
49758;SDS011;35654;46.080;11.118;2023-02-08T05:43:23;35.70;;;15.70;;
49758;SDS011;35654;46.080;11.118;2023-02-08T05:45:49;33.50;;;15.33;;
49758;SDS011;35654;46.080;11.118;2023-02-08T05:48:15;39.83;;;16.17;;
49758;SDS011;35654;46.080;11.118;2023-02-08T05:50:41;39.67;;;17.03;;
49758;SDS011;35654;46.080;11.118;2023-02-08T05:53:07;34.70;;;14.13;;
49758;SDS011;35654;46.080;11.118;2023-02-08T05:55:32;34.40;;;15.77;;
49758;SDS011;35654;46.080;11.118;2023-02-08T05:57:58;33.63;;;14.80;;
49758;SDS011;35654;46.080;11.118;2023-02-08T06:00:23;34.83;;;15.33;;
49758;SDS011;35654;46.080;11.118;2023-02-08T06:02:49;37.17;;;14.50;;
49758;SDS011;35654;46.080;11.118;2023-02-08T06:05:14;34.83;;;14.57;;
49758;SDS011;35654;46.080;11.118;2023-02-08T06:07:40;37.67;;;15.47;;
49758;SDS011;35654;46.080;11.118;2023-02-08T06:10:05;33.00;;;14.80;;
49758;SDS011;35654;46.080;11.118;2023-02-08T06:12:31;36.67;;;15.83;;
49758;SDS011;35654;46.080;11.118;2023-02-08T06:14:56;37.43;;;15.77;;
49758;SDS011;35654;46.080;11.118;2023-02-08T06:17:22;32.13;;;14.90;;
49758;SDS011;35654;46.080;11.118;2023-02-08T06:19:49;32.50;;;14.83;;
49758;SDS011;35654;46.080;11.118;2023-02-08T06:24:42;35.05;;;13.60;;
49758;SDS011;35654;46.080;11.118;2023-02-08T06:27:08;34.47;;;14.75;;
49758;SDS011;35654;46.080;11.118;2023-02-08T06:29:35;31.92;;;15.38;;
49758;SDS011;35654;46.080;11.118;2023-02-08T06:32:02;36.25;;;16.52;;
49758;SDS011;35654;46.080;11.118;2023-02-08T06:34:27;38.03;;;14.82;;
49758;SDS011;35654;46.080;11.118;2023-02-08T06:36:53;38.87;;;16.23;;
49758;SDS011;35654;46.080;11.118;2023-02-08T06:39:18;41.37;;;15.70;;
49758;SDS011;35654;46.080;11.118;2023-02-08T06:41:43;41.37;;;17.70;;
49758;SDS011;35654;46.080;11.118;2023-02-08T06:44:09;40.30;;;16.33;;
49758;SDS011;35654;46.080;11.118;2023-02-08T06:46:34;44.80;;;16.47;;
49758;SDS011;35654;46.080;11.118;2023-02-08T06:49:01;35.27;;;15.13;;
49758;SDS011;35654;46.080;11.118;2023-02-08T06:53:54;34.15;;;13.65;;
49758;SDS011;35654;46.080;11.118;2023-02-08T06:56:21;33.72;;;13.80;;
49758;SDS011;35654;46.080;11.118;2023-02-08T06:58:46;28.63;;;13.55;;
49758;SDS011;35654;46.080;11.118;2023-02-08T07:01:13;27.67;;;12.83;;
49758;SDS011;35654;46.080;11.118;2023-02-08T07:03:40;33.42;;;13.43;;
49758;SDS011;35654;46.080;11.118;2023-02-08T07:08:44;30.40;;;13.57;;
49758;SDS011;35654;46.080;11.118;2023-02-08T07:11:12;33.97;;;14.05;;
49758;SDS011;35654;46.080;11.118;2023-02-08T07:13:49;33.35;;;13.90;;
49758;SDS011;35654;46.080;11.118;2023-02-08T07:16:15;34.38;;;14.60;;
49758;SDS011;35654;46.080;11.118;2023-02-08T07:18:42;31.77;;;14.00;;
49758;SDS011;35654;46.080;11.118;2023-02-08T07:21:07;37.83;;;14.33;;
49758;SDS011;35654;46.080;11.118;2023-02-08T07:26:03;37.33;;;14.38;;
49758;SDS011;35654;46.080;11.118;2023-02-08T07:28:30;37.00;;;15.35;;
49758;SDS011;35654;46.080;11.118;2023-02-08T07:30:58;35.97;;;14.80;;
49758;SDS011;35654;46.080;11.118;2023-02-08T07:33:29;36.97;;;15.50;;
49758;SDS011;35654;46.080;11.118;2023-02-08T07:35:55;38.33;;;13.95;;
49758;SDS011;35654;46.080;11.118;2023-02-08T07:38:22;31.27;;;14.60;;
49758;SDS011;35654;46.080;11.118;2023-02-08T07:40:48;88.57;;;28.30;;
49758;SDS011;35654;46.080;11.118;2023-02-08T07:43:13;36.53;;;15.50;;
49758;SDS011;35654;46.080;11.118;2023-02-08T07:45:45;34.20;;;13.50;;
49758;SDS011;35654;46.080;11.118;2023-02-08T07:48:11;31.83;;;13.88;;
49758;SDS011;35654;46.080;11.118;2023-02-08T07:50:38;31.65;;;13.75;;
49758;SDS011;35654;46.080;11.118;2023-02-08T07:53:04;33.05;;;14.10;;
49758;SDS011;35654;46.080;11.118;2023-02-08T07:55:31;27.65;;;13.90;;
49758;SDS011;35654;46.080;11.118;2023-02-08T07:57:58;32.50;;;14.25;;
49758;SDS011;35654;46.080;11.118;2023-02-08T08:00:23;30.33;;;13.90;;
49758;SDS011;35654;46.080;11.118;2023-02-08T08:02:50;31.92;;;14.48;;
49758;SDS011;35654;46.080;11.118;2023-02-08T08:05:16;33.20;;;14.47;;
49758;SDS011;35654;46.080;11.118;2023-02-08T08:07:41;31.63;;;14.80;;
49758;SDS011;35654;46.080;11.118;2023-02-08T08:10:07;39.47;;;13.70;;
49758;SDS011;35654;46.080;11.118;2023-02-08T08:12:32;32.53;;;13.93;;
49758;SDS011;35654;46.080;11.118;2023-02-08T08:14:58;30.60;;;13.57;;
49758;SDS011;35654;46.080;11.118;2023-02-08T08:17:23;29.00;;;14.47;;
49758;SDS011;35654;46.080;11.118;2023-02-08T08:19:49;30.40;;;13.70;;
49758;SDS011;35654;46.080;11.118;2023-02-08T08:22:14;30.53;;;13.23;;
49758;SDS011;35654;46.080;11.118;2023-02-08T08:24:41;31.37;;;12.83;;
49758;SDS011;35654;46.080;11.118;2023-02-08T08:29:33;37.40;;;12.70;;
49758;SDS011;35654;46.080;11.118;2023-02-08T08:31:59;30.33;;;12.77;;
49758;SDS011;35654;46.080;11.118;2023-02-08T08:34:25;32.07;;;13.50;;
49758;SDS011;35654;46.080;11.118;2023-02-08T08:36:54;31.58;;;13.68;;
49758;SDS011;35654;46.080;11.118;2023-02-08T08:39:24;25.63;;;11.35;;
49758;SDS011;35654;46.080;11.118;2023-02-08T08:41:51;24.00;;;11.30;;
49758;SDS011;35654;46.080;11.118;2023-02-08T08:44:17;25.70;;;10.95;;
49758;SDS011;35654;46.080;11.118;2023-02-08T08:46:43;25.50;;;11.17;;
49758;SDS011;35654;46.080;11.118;2023-02-08T08:49:09;38.10;;;11.00;;
49758;SDS011;35654;46.080;11.118;2023-02-08T08:51:37;24.10;;;9.55;;
49758;SDS011;35654;46.080;11.118;2023-02-08T08:54:04;26.00;;;10.55;;
49758;SDS011;35654;46.080;11.118;2023-02-08T08:56:31;24.50;;;9.88;;
49758;SDS011;35654;46.080;11.118;2023-02-08T08:58:58;23.95;;;10.18;;
49758;SDS011;35654;46.080;11.118;2023-02-08T09:01:25;20.38;;;10.23;;
49758;SDS011;35654;46.080;11.118;2023-02-08T09:06:18;27.13;;;10.02;;
49758;SDS011;35654;46.080;11.118;2023-02-08T09:08:45;25.98;;;9.07;;
49758;SDS011;35654;46.080;11.118;2023-02-08T09:13:39;34.53;;;10.55;;
49758;SDS011;35654;46.080;11.118;2023-02-08T09:16:11;19.77;;;9.25;;
49758;SDS011;35654;46.080;11.118;2023-02-08T09:18:40;22.58;;;9.48;;
49758;SDS011;35654;46.080;11.118;2023-02-08T09:21:17;21.60;;;9.25;;
49758;SDS011;35654;46.080;11.118;2023-02-08T09:23:46;18.40;;;9.27;;
49758;SDS011;35654;46.080;11.118;2023-02-08T09:26:14;22.38;;;9.45;;
49758;SDS011;35654;46.080;11.118;2023-02-08T09:28:42;15.85;;;8.75;;
49758;SDS011;35654;46.080;11.118;2023-02-08T09:33:45;21.45;;;9.45;;
49758;SDS011;35654;46.080;11.118;2023-02-08T09:36:13;16.95;;;8.65;;
49758;SDS011;35654;46.080;11.118;2023-02-08T09:38:40;19.20;;;9.40;;
49758;SDS011;35654;46.080;11.118;2023-02-08T09:50:00;17.80;;;7.22;;
49758;SDS011;35654;46.080;11.118;2023-02-08T09:52:38;20.00;;;7.72;;
49758;SDS011;35654;46.080;11.118;2023-02-08T09:55:13;13.43;;;7.53;;
49758;SDS011;35654;46.080;11.118;2023-02-08T09:58:22;14.73;;;7.07;;
49758;SDS011;35654;46.080;11.118;2023-02-08T10:00:54;18.42;;;7.75;;
49758;SDS011;35654;46.080;11.118;2023-02-08T10:03:44;15.93;;;7.20;;
49758;SDS011;35654;46.080;11.118;2023-02-08T10:06:16;14.90;;;7.13;;
49758;SDS011;35654;46.080;11.118;2023-02-08T10:08:44;15.20;;;6.78;;
49758;SDS011;35654;46.080;11.118;2023-02-08T10:25:05;13.07;;;6.90;;
49758;SDS011;35654;46.080;11.118;2023-02-08T10:27:39;15.02;;;7.68;;
49758;SDS011;35654;46.080;11.118;2023-02-08T10:30:47;12.90;;;6.60;;
49758;SDS011;35654;46.080;11.118;2023-02-08T10:36:31;13.40;;;7.05;;
49758;SDS011;35654;46.080;11.118;2023-02-08T10:38:58;14.10;;;6.90;;
49758;SDS011;35654;46.080;11.118;2023-02-08T10:41:33;14.07;;;7.40;;
49758;SDS011;35654;46.080;11.118;2023-02-08T10:44:15;15.45;;;7.22;;
49758;SDS011;35654;46.080;11.118;2023-02-08T10:52:35;10.70;;;6.63;;
49758;SDS011;35654;46.080;11.118;2023-02-08T10:55:01;14.57;;;6.87;;
49758;SDS011;35654;46.080;11.118;2023-02-08T10:57:29;16.93;;;7.80;;
49758;SDS011;35654;46.080;11.118;2023-02-08T11:00:01;12.07;;;7.45;;
49758;SDS011;35654;46.080;11.118;2023-02-08T11:02:32;13.77;;;7.03;;
49758;SDS011;35654;46.080;11.118;2023-02-08T11:05:17;11.63;;;7.28;;
49758;SDS011;35654;46.080;11.118;2023-02-08T11:08:15;10.95;;;6.82;;
49758;SDS011;35654;46.080;11.118;2023-02-08T11:11:05;17.48;;;6.85;;
49758;SDS011;35654;46.080;11.118;2023-02-08T11:13:41;11.85;;;6.72;;
49758;SDS011;35654;46.080;11.118;2023-02-08T11:16:20;10.38;;;7.25;;
49758;SDS011;35654;46.080;11.118;2023-02-08T11:18:48;11.93;;;7.30;;
49758;SDS011;35654;46.080;11.118;2023-02-08T11:21:25;11.02;;;7.57;;
49758;SDS011;35654;46.080;11.118;2023-02-08T11:23:57;10.82;;;6.20;;
49758;SDS011;35654;46.080;11.118;2023-02-08T11:26:45;12.13;;;7.90;;
49758;SDS011;35654;46.080;11.118;2023-02-08T11:34:28;18.50;;;8.00;;
49758;SDS011;35654;46.080;11.118;2023-02-08T11:37:03;11.35;;;7.32;;
49758;SDS011;35654;46.080;11.118;2023-02-08T11:39:44;14.52;;;7.53;;
49758;SDS011;35654;46.080;11.118;2023-02-08T11:42:19;14.02;;;7.75;;
49758;SDS011;35654;46.080;11.118;2023-02-08T11:44:48;13.80;;;7.50;;
49758;SDS011;35654;46.080;11.118;2023-02-08T11:47:15;11.38;;;7.80;;
49758;SDS011;35654;46.080;11.118;2023-02-08T11:49:42;13.77;;;7.72;;
49758;SDS011;35654;46.080;11.118;2023-02-08T12:00:31;9.90;;;7.18;;
49758;SDS011;35654;46.080;11.118;2023-02-08T12:03:04;15.32;;;8.10;;
49758;SDS011;35654;46.080;11.118;2023-02-08T12:05:47;15.50;;;8.80;;
49758;SDS011;35654;46.080;11.118;2023-02-08T12:20:17;13.20;;;9.15;;
49758;SDS011;35654;46.080;11.118;2023-02-08T12:22:25;13.23;;;8.50;;
49758;SDS011;35654;46.080;11.118;2023-02-08T12:24:59;17.88;;;8.77;;
49758;SDS011;35654;46.080;11.118;2023-02-08T12:36:14;13.20;;;9.15;;
49758;SDS011;35654;46.080;11.118;2023-02-08T12:42:12;12.80;;;9.57;;
49758;SDS011;35654;46.080;11.118;2023-02-08T12:50:46;12.00;;;9.23;;
49758;SDS011;35654;46.080;11.118;2023-02-08T12:55:43;12.00;;;9.30;;
49758;SDS011;35654;46.080;11.118;2023-02-08T13:01:03;13.60;;;9.00;;
49758;SDS011;35654;46.080;11.118;2023-02-08T13:08:30;15.10;;;8.43;;
49758;SDS011;35654;46.080;11.118;2023-02-08T13:11:04;12.55;;;8.82;;
49758;SDS011;35654;46.080;11.118;2023-02-08T13:13:36;14.88;;;8.80;;
49758;SDS011;35654;46.080;11.118;2023-02-08T13:16:41;13.60;;;9.10;;
49758;SDS011;35654;46.080;11.118;2023-02-08T13:21:48;12.32;;;8.45;;
49758;SDS011;35654;46.080;11.118;2023-02-08T13:26:58;10.27;;;8.13;;
49758;SDS011;35654;46.080;11.118;2023-02-08T13:29:25;11.35;;;8.35;;
49758;SDS011;35654;46.080;11.118;2023-02-08T13:31:59;13.05;;;8.45;;
49758;SDS011;35654;46.080;11.118;2023-02-08T13:34:33;32.15;;;9.40;;
49758;SDS011;35654;46.080;11.118;2023-02-08T13:39:50;13.15;;;8.07;;
49758;SDS011;35654;46.080;11.118;2023-02-08T13:42:40;14.15;;;7.80;;
49758;SDS011;35654;46.080;11.118;2023-02-08T13:45:09;15.68;;;8.07;;
49758;SDS011;35654;46.080;11.118;2023-02-08T13:47:54;12.98;;;8.32;;
49758;SDS011;35654;46.080;11.118;2023-02-08T13:53:11;16.95;;;10.57;;
49758;SDS011;35654;46.080;11.118;2023-02-08T13:55:58;17.35;;;12.20;;
49758;SDS011;35654;46.080;11.118;2023-02-08T14:01:25;21.98;;;14.70;;
49758;SDS011;35654;46.080;11.118;2023-02-08T14:06:49;70.10;;;40.88;;
49758;SDS011;35654;46.080;11.118;2023-02-08T14:12:48;22.95;;;13.90;;
49758;SDS011;35654;46.080;11.118;2023-02-08T14:15:22;23.25;;;14.60;;
49758;SDS011;35654;46.080;11.118;2023-02-08T14:17:50;20.33;;;15.02;;
49758;SDS011;35654;46.080;11.118;2023-02-08T14:20:27;22.17;;;14.90;;
49758;SDS011;35654;46.080;11.118;2023-02-08T14:22:59;24.02;;;15.30;;
49758;SDS011;35654;46.080;11.118;2023-02-08T14:25:44;26.80;;;15.77;;
49758;SDS011;35654;46.080;11.118;2023-02-08T14:28:29;31.63;;;16.05;;
49758;SDS011;35654;46.080;11.118;2023-02-08T14:31:00;25.40;;;15.13;;
49758;SDS011;35654;46.080;11.118;2023-02-08T14:33:37;27.92;;;15.65;;
49758;SDS011;35654;46.080;11.118;2023-02-08T14:36:29;30.60;;;16.42;;
49758;SDS011;35654;46.080;11.118;2023-02-08T14:42:09;27.02;;;15.88;;
49758;SDS011;35654;46.080;11.118;2023-02-08T14:52:36;26.98;;;16.05;;
49758;SDS011;35654;46.080;11.118;2023-02-08T14:55:15;28.42;;;16.52;;
49758;SDS011;35654;46.080;11.118;2023-02-08T14:57:54;26.23;;;16.25;;
49758;SDS011;35654;46.080;11.118;2023-02-08T15:00:22;32.60;;;16.63;;
49758;SDS011;35654;46.080;11.118;2023-02-08T15:02:50;29.35;;;16.67;;
49758;SDS011;35654;46.080;11.118;2023-02-08T15:05:19;29.67;;;17.42;;
49758;SDS011;35654;46.080;11.118;2023-02-08T15:07:52;33.85;;;17.38;;
49758;SDS011;35654;46.080;11.118;2023-02-08T15:10:22;28.88;;;15.75;;
49758;SDS011;35654;46.080;11.118;2023-02-08T15:12:52;35.05;;;15.80;;
49758;SDS011;35654;46.080;11.118;2023-02-08T15:15:38;31.58;;;16.63;;
49758;SDS011;35654;46.080;11.118;2023-02-08T15:18:14;25.90;;;14.65;;
49758;SDS011;35654;46.080;11.118;2023-02-08T15:23:20;32.80;;;15.57;;
49758;SDS011;35654;46.080;11.118;2023-02-08T15:25:59;29.77;;;15.50;;
49758;SDS011;35654;46.080;11.118;2023-02-08T15:28:27;31.17;;;15.65;;
49758;SDS011;35654;46.080;11.118;2023-02-08T15:33:26;42.72;;;20.63;;
49758;SDS011;35654;46.080;11.118;2023-02-08T15:35:57;33.03;;;16.50;;
49758;SDS011;35654;46.080;11.118;2023-02-08T15:38:24;35.50;;;17.25;;
49758;SDS011;35654;46.080;11.118;2023-02-08T15:43:39;46.17;;;20.45;;
49758;SDS011;35654;46.080;11.118;2023-02-08T15:49:02;36.80;;;17.10;;
49758;SDS011;35654;46.080;11.118;2023-02-08T15:51:29;31.77;;;15.57;;
49758;SDS011;35654;46.080;11.118;2023-02-08T15:53:56;33.40;;;16.30;;
49758;SDS011;35654;46.080;11.118;2023-02-08T15:56:27;33.38;;;15.80;;
49758;SDS011;35654;46.080;11.118;2023-02-08T15:58:58;33.85;;;15.82;;
49758;SDS011;35654;46.080;11.118;2023-02-08T16:01:26;35.72;;;15.35;;
49758;SDS011;35654;46.080;11.118;2023-02-08T16:03:57;28.27;;;14.02;;
49758;SDS011;35654;46.080;11.118;2023-02-08T16:06:29;39.78;;;15.45;;
49758;SDS011;35654;46.080;11.118;2023-02-08T16:09:02;31.58;;;15.80;;
49758;SDS011;35654;46.080;11.118;2023-02-08T16:11:32;36.10;;;16.13;;
49758;SDS011;35654;46.080;11.118;2023-02-08T16:14:02;32.67;;;15.27;;
49758;SDS011;35654;46.080;11.118;2023-02-08T16:16:42;32.15;;;16.52;;
49758;SDS011;35654;46.080;11.118;2023-02-08T16:19:24;35.38;;;16.83;;
49758;SDS011;35654;46.080;11.118;2023-02-08T16:21:56;37.58;;;16.05;;
49758;SDS011;35654;46.080;11.118;2023-02-08T16:24:47;36.90;;;16.60;;
49758;SDS011;35654;46.080;11.118;2023-02-08T16:27:24;37.67;;;18.27;;
49758;SDS011;35654;46.080;11.118;2023-02-08T16:29:54;44.70;;;17.80;;
49758;SDS011;35654;46.080;11.118;2023-02-08T16:35:27;35.53;;;15.43;;
49758;SDS011;35654;46.080;11.118;2023-02-08T16:37:56;32.13;;;14.50;;
49758;SDS011;35654;46.080;11.118;2023-02-08T16:43:16;37.00;;;16.35;;
49758;SDS011;35654;46.080;11.118;2023-02-08T16:45:45;37.97;;;17.75;;
49758;SDS011;35654;46.080;11.118;2023-02-08T16:48:33;34.13;;;15.25;;
49758;SDS011;35654;46.080;11.118;2023-02-08T16:51:05;39.88;;;15.95;;
49758;SDS011;35654;46.080;11.118;2023-02-08T16:53:46;33.88;;;15.82;;
49758;SDS011;35654;46.080;11.118;2023-02-08T16:56:13;34.58;;;15.60;;
49758;SDS011;35654;46.080;11.118;2023-02-08T16:58:40;36.88;;;16.67;;
49758;SDS011;35654;46.080;11.118;2023-02-08T17:01:11;32.47;;;15.48;;
49758;SDS011;35654;46.080;11.118;2023-02-08T17:03:39;29.00;;;14.55;;
49758;SDS011;35654;46.080;11.118;2023-02-08T17:06:09;38.03;;;15.68;;
49758;SDS011;35654;46.080;11.118;2023-02-08T17:08:46;33.97;;;15.30;;
49758;SDS011;35654;46.080;11.118;2023-02-08T17:13:40;32.30;;;14.82;;
49758;SDS011;35654;46.080;11.118;2023-02-08T17:16:08;32.03;;;14.70;;
49758;SDS011;35654;46.080;11.118;2023-02-08T17:18:41;30.02;;;13.88;;
49758;SDS011;35654;46.080;11.118;2023-02-08T17:21:08;32.15;;;15.05;;
49758;SDS011;35654;46.080;11.118;2023-02-08T17:23:34;33.20;;;15.98;;
49758;SDS011;35654;46.080;11.118;2023-02-08T17:26:01;39.60;;;17.88;;
49758;SDS011;35654;46.080;11.118;2023-02-08T17:30:54;37.17;;;16.17;;
49758;SDS011;35654;46.080;11.118;2023-02-08T17:33:20;32.50;;;15.35;;
49758;SDS011;35654;46.080;11.118;2023-02-08T17:35:49;35.22;;;16.08;;
49758;SDS011;35654;46.080;11.118;2023-02-08T17:38:17;33.25;;;16.20;;
49758;SDS011;35654;46.080;11.118;2023-02-08T17:40:47;31.75;;;15.25;;
49758;SDS011;35654;46.080;11.118;2023-02-08T17:43:21;33.40;;;15.80;;
49758;SDS011;35654;46.080;11.118;2023-02-08T17:45:48;33.13;;;15.20;;
49758;SDS011;35654;46.080;11.118;2023-02-08T17:48:14;33.38;;;15.55;;
49758;SDS011;35654;46.080;11.118;2023-02-08T17:50:43;34.67;;;15.70;;
49758;SDS011;35654;46.080;11.118;2023-02-08T17:53:16;42.45;;;16.50;;
49758;SDS011;35654;46.080;11.118;2023-02-08T17:55:44;42.92;;;16.40;;
49758;SDS011;35654;46.080;11.118;2023-02-08T18:00:38;30.73;;;14.95;;
49758;SDS011;35654;46.080;11.118;2023-02-08T18:05:31;34.67;;;14.95;;
49758;SDS011;35654;46.080;11.118;2023-02-08T18:07:57;33.50;;;15.73;;
49758;SDS011;35654;46.080;11.118;2023-02-08T18:10:24;34.42;;;15.38;;
49758;SDS011;35654;46.080;11.118;2023-02-08T18:12:51;32.15;;;14.70;;
49758;SDS011;35654;46.080;11.118;2023-02-08T18:15:19;33.88;;;15.68;;
49758;SDS011;35654;46.080;11.118;2023-02-08T18:17:47;43.72;;;20.00;;